Time;durP1;ratioP1;P1;durP2;ratioP2;P2;SDS_P1;SDS_P2;PMS_P1;PMS_P2;Temp;Humidity;BMP_temperature;BMP_pressure;BME280_temperature;BME280_humidity;BME280_pressure;Samples;Min_cycle;Max_cycle;Signal;HPM_P1;HPM_P2
2021/07/07 00:00:08;;;;;;;;;;;;;;;20.01;100.00;100620.16;5073545;28;19928;-68
2021/07/07 00:02:34;;;;;;;;;;;;;;;20.00;100.00;100632.22;5073474;28;19964;-68
2021/07/07 00:05:00;;;;;;;;;;;;;;;20.00;100.00;100630.34;5073338;28;19964;-69
2021/07/07 00:07:27;;;;;;;;;;;;;;;19.98;100.00;100629.66;5073267;28;20391;-68
2021/07/07 00:09:53;;;;;;;;;;;;;;;19.91;100.00;100645.25;5073286;28;19924;-68
2021/07/07 00:12:19;;;;;;;;;;;;;;;19.86;100.00;100645.78;5073308;28;19967;-68
2021/07/07 00:14:46;;;;;;;;;;;;;;;19.78;100.00;100656.88;5072877;28;19956;-68
2021/07/07 00:17:14;;;;;;;;;;;;;;;19.72;100.00;100663.97;5073119;28;19979;-68
2021/07/07 00:19:40;;;;;;;;;;;;;;;19.64;100.00;100666.81;5072934;28;19968;-68
2021/07/07 00:22:07;;;;;;;;;;;;;;;19.57;100.00;100672.22;5073120;28;19974;-68
2021/07/07 00:24:33;;;;;;;;;;;;;;;19.51;100.00;100677.59;5073057;28;20306;-68
2021/07/07 00:26:59;;;;;;;;;;;;;;;19.45;100.00;100692.94;5072779;28;19978;-69
2021/07/07 00:29:25;;;;;;;;;;;;;;;19.42;100.00;100704.31;5072909;28;19924;-68
2021/07/07 00:31:52;;;;;;;;;;;;;;;19.39;100.00;100710.19;5072557;28;20020;-68
2021/07/07 00:34:20;;;;;;;;;;;;;;;19.32;100.00;100707.31;5072997;28;19959;-68
2021/07/07 00:36:46;;;;;;;;;;;;;;;19.27;100.00;100712.50;5072517;28;20311;-68
2021/07/07 00:39:12;;;;;;;;;;;;;;;19.18;100.00;100717.19;5072838;28;19956;-68
2021/07/07 00:41:38;;;;;;;;;;;;;;;19.09;100.00;100718.28;5072545;28;19925;-68
2021/07/07 00:44:05;;;;;;;;;;;;;;;19.03;100.00;100713.53;5072540;28;20370;-68
2021/07/07 00:46:31;;;;;;;;;;;;;;;18.95;100.00;100714.41;5072330;28;20508;-68
2021/07/07 00:48:57;;;;;;;;;;;;;;;18.90;100.00;100720.44;5072303;28;19924;-68
2021/07/07 00:51:25;;;;;;;;;;;;;;;18.90;100.00;100723.19;5070927;28;20019;-68
2021/07/07 00:53:55;;;;;;;;;;;;;;;18.87;100.00;100736.44;5071127;28;19979;-68
2021/07/07 00:56:21;;;;;;;;;;;;;;;18.83;100.00;100724.94;5072338;28;20034;-68
2021/07/07 00:58:48;;;;;;;;;;;;;;;18.81;100.00;100713.22;5072056;28;20400;-68
2021/07/07 01:01:14;;;;;;;;;;;;;;;18.78;100.00;100719.09;5072360;28;19924;-68
2021/07/07 01:03:40;;;;;;;;;;;;;;;18.76;100.00;100721.19;5071054;28;19963;-68
2021/07/07 01:06:07;;;;;;;;;;;;;;;18.74;100.00;100720.50;5072063;28;20424;-68
2021/07/07 01:08:34;;;;;;;;;;;;;;;18.72;100.00;100733.59;5072041;28;19986;-68
2021/07/07 01:11:01;;;;;;;;;;;;;;;18.70;100.00;100733.72;5070590;28;19925;-68
2021/07/07 01:13:27;;;;;;;;;;;;;;;18.69;100.00;100728.41;5072105;28;19932;-68
2021/07/07 01:15:55;;;;;;;;;;;;;;;18.65;100.00;100730.69;5071947;28;20441;-68
2021/07/07 01:18:21;;;;;;;;;;;;;;;18.64;100.00;100720.72;5070792;28;19952;-68
2021/07/07 01:20:47;;;;;;;;;;;;;;;18.63;100.00;100713.50;5071903;28;19956;-69
2021/07/07 01:23:15;;;;;;;;;;;;;;;18.61;100.00;100715.56;5071960;28;19977;-68
2021/07/07 01:25:41;;;;;;;;;;;;;;;18.62;100.00;100716.44;5071758;28;19990;-68
2021/07/07 01:28:08;;;;;;;;;;;;;;;18.56;100.00;100715.25;5071265;28;19936;-68
2021/07/07 01:30:34;;;;;;;;;;;;;;;18.53;100.00;100724.72;5071776;28;20298;-68
2021/07/07 01:33:01;;;;;;;;;;;;;;;18.52;100.00;100717.50;5071874;28;19959;-68
2021/07/07 01:35:27;;;;;;;;;;;;;;;18.48;100.00;100718.88;5071890;28;19974;-70
2021/07/07 01:37:54;;;;;;;;;;;;;;;18.44;100.00;100719.41;5071692;28;19924;-68
2021/07/07 01:40:23;;;;;;;;;;;;;;;18.40;100.00;100721.66;5071744;28;20311;-68
2021/07/07 01:42:50;;;;;;;;;;;;;;;18.37;100.00;100719.25;5071704;28;19951;-68
2021/07/07 01:45:18;;;;;;;;;;;;;;;18.33;100.00;100720.63;5071799;28;20029;-68
2021/07/07 01:47:44;;;;;;;;;;;;;;;18.28;100.00;100728.53;5070941;28;19924;-68
2021/07/07 01:50:12;;;;;;;;;;;;;;;18.22;100.00;100728.19;5071612;28;19970;-68
2021/07/07 01:52:39;;;;;;;;;;;;;;;18.20;100.00;100729.44;5071734;28;19972;-68
2021/07/07 01:55:05;;;;;;;;;;;;;;;18.18;100.00;100757.06;5071642;28;19975;-68
2021/07/07 01:57:44;;;;;;;;;;;;;;;18.15;100.00;100751.06;5071302;28;19947;-68
2021/07/07 02:00:11;;;;;;;;;;;;;;;18.11;100.00;100753.31;5071562;28;19925;-69
2021/07/07 02:02:38;;;;;;;;;;;;;;;18.09;100.00;100760.84;5073057;28;20418;-68
2021/07/07 02:05:04;;;;;;;;;;;;;;;18.06;100.00;100761.19;5072419;28;20005;-68
2021/07/07 02:07:31;;;;;;;;;;;;;;;18.04;100.00;100763.28;5083364;28;20346;-69
2021/07/07 02:09:57;;;;;;;;;;;;;;;18.02;100.00;100760.69;5095319;28;19924;-69
2021/07/07 02:12:23;;;;;;;;;;;;;;;17.99;100.00;100755.53;5096037;28;19924;-69
2021/07/07 02:14:51;;;;;;;;;;;;;;;17.99;100.00;100760.19;5095655;28;20345;-69
2021/07/07 02:17:17;;;;;;;;;;;;;;;17.98;100.00;100769.44;5095581;28;20356;-69
2021/07/07 02:19:44;;;;;;;;;;;;;;;17.96;100.00;100782.47;5094279;28;19971;-69
2021/07/07 02:22:10;;;;;;;;;;;;;;;17.91;100.00;100786.56;5095857;28;19924;-69
2021/07/07 02:24:36;;;;;;;;;;;;;;;17.90;100.00;100784.00;5095787;28;19963;-69
2021/07/07 02:27:03;;;;;;;;;;;;;;;17.86;100.00;100772.50;5093951;28;19928;-69
2021/07/07 02:29:29;;;;;;;;;;;;;;;17.84;100.00;100779.22;5095614;28;20395;-69
2021/07/07 02:31:57;;;;;;;;;;;;;;;17.81;100.00;100790.50;5095346;28;19928;-70
2021/07/07 02:34:23;;;;;;;;;;;;;;;17.76;100.00;100793.78;5095620;28;19959;-70
2021/07/07 02:36:49;;;;;;;;;;;;;;;17.73;100.00;100810.56;5095174;28;20024;-69
2021/07/07 02:39:15;;;;;;;;;;;;;;;17.72;100.00;100820.72;5094062;28;20347;-70
2021/07/07 02:41:42;;;;;;;;;;;;;;;17.69;100.00;100844.88;5095087;28;19924;-69
2021/07/07 02:44:08;;;;;;;;;;;;;;;17.66;100.00;100837.00;5095158;28;20395;-70
2021/07/07 02:46:34;;;;;;;;;;;;;;;17.66;100.00;100839.75;5095067;28;19924;-70
2021/07/07 02:49:02;;;;;;;;;;;;;;;17.67;100.00;100846.97;5095000;28;19924;-70
2021/07/07 02:51:28;;;;;;;;;;;;;;;17.64;100.00;100850.06;5095013;28;19928;-69
2021/07/07 02:53:55;;;;;;;;;;;;;;;17.65;100.00;100846.25;5095114;28;19977;-70
2021/07/07 02:56:21;;;;;;;;;;;;;;;17.65;100.00;100840.75;5094866;28;19928;-70
2021/07/07 02:58:47;;;;;;;;;;;;;;;17.66;100.00;100832.34;5093683;28;19930;-69
2021/07/07 03:01:14;;;;;;;;;;;;;;;17.65;100.00;100833.41;5094861;28;19924;-70
2021/07/07 03:03:41;;;;;;;;;;;;;;;17.66;100.00;100837.00;5094776;28;20390;-70
2021/07/07 03:06:10;;;;;;;;;;;;;;;17.65;100.00;100835.28;5094756;28;19928;-70
2021/07/07 03:08:40;;;;;;;;;;;;;;;17.60;100.00;100818.44;5094583;28;19924;-70
2021/07/07 03:11:07;;;;;;;;;;;;;;;17.61;100.00;100817.44;5094759;28;19924;-70
2021/07/07 03:13:33;;;;;;;;;;;;;;;17.57;100.00;100816.91;5094543;28;20024;-69
2021/07/07 03:15:59;;;;;;;;;;;;;;;17.59;100.00;100816.75;5076445;28;19972;-70
2021/07/07 03:18:26;;;;;;;;;;;;;;;17.55;100.00;100813.47;5074568;28;20011;-70
2021/07/07 03:20:53;;;;;;;;;;;;;;;17.55;100.00;100805.25;5071338;28;19969;-70
2021/07/07 03:23:22;;;;;;;;;;;;;;;17.56;100.00;100807.81;5073435;28;20359;-70
2021/07/07 03:25:49;;;;;;;;;;;;;;;17.55;100.00;100819.81;5073565;28;20023;-69
2021/07/07 03:28:15;;;;;;;;;;;;;;;17.53;100.00;100793.56;5073948;28;20221;-69
2021/07/07 03:30:42;;;;;;;;;;;;;;;17.58;100.00;100802.16;5072357;28;19959;-69
2021/07/07 03:33:08;;;;;;;;;;;;;;;17.57;100.00;100814.16;5074054;28;19982;-69
2021/07/07 03:35:34;;;;;;;;;;;;;;;17.55;100.00;100797.84;5073846;28;19955;-69
2021/07/07 03:38:01;;;;;;;;;;;;;;;17.59;100.00;100801.13;5072775;28;19924;-69
2021/07/07 03:40:29;;;;;;;;;;;;;;;17.62;100.00;100799.94;5073999;28;19924;-69
2021/07/07 03:42:56;;;;;;;;;;;;;;;17.62;100.00;100786.22;5073719;28;19928;-70
2021/07/07 03:45:23;;;;;;;;;;;;;;;17.63;100.00;100779.72;5072689;28;19947;-70
2021/07/07 03:47:49;;;;;;;;;;;;;;;17.64;100.00;100775.94;5073492;28;19937;-70
2021/07/07 03:50:16;;;;;;;;;;;;;;;17.65;100.00;100780.38;5072576;28;19970;-70
2021/07/07 03:52:43;;;;;;;;;;;;;;;17.67;100.00;100790.16;5072473;28;20291;-70
2021/07/07 03:55:10;;;;;;;;;;;;;;;17.70;100.00;100794.44;5072271;28;19924;-70
2021/07/07 03:57:38;;;;;;;;;;;;;;;17.61;100.00;100807.31;5073334;28;19925;-70
2021/07/07 04:00:05;;;;;;;;;;;;;;;17.64;100.00;100817.13;5073482;28;20010;-69
2021/07/07 04:02:38;;;;;;;;;;;;;;;17.60;100.00;100845.91;5073609;28;19924;-69
2021/07/07 04:05:05;;;;;;;;;;;;;;;17.54;100.00;100839.19;5074540;28;19928;-70
2021/07/07 04:07:31;;;;;;;;;;;;;;;17.57;100.00;100845.22;5073209;28;19925;-69
2021/07/07 04:09:57;;;;;;;;;;;;;;;17.62;100.00;100843.84;5073293;28;20325;-69
2021/07/07 04:12:24;;;;;;;;;;;;;;;17.59;100.00;100842.31;5055481;28;19924;-69
2021/07/07 04:14:51;;;;;;;;;;;;;;;17.64;100.00;100847.31;5073269;28;19979;-69
2021/07/07 04:17:18;;;;;;;;;;;;;;;17.66;100.00;100851.56;5071498;28;19924;-69
2021/07/07 04:19:44;;;;;;;;;;;;;;;17.65;100.00;100855.38;5073055;28;19925;-69
2021/07/07 04:22:11;;;;;;;;;;;;;;;17.69;100.00;100858.59;5073071;28;19925;-69
2021/07/07 04:24:37;;;;;;;;;;;;;;;17.67;100.00;100856.03;5072331;28;19931;-70
2021/07/07 04:27:04;;;;;;;;;;;;;;;17.65;100.00;100860.84;5071521;28;19928;-70
2021/07/07 04:29:31;;;;;;;;;;;;;;;17.62;100.00;100847.44;5071674;28;20391;-70
2021/07/07 04:31:58;;;;;;;;;;;;;;;17.67;100.00;100855.19;5072937;28;19974;-69
2021/07/07 04:34:25;;;;;;;;;;;;;;;17.61;100.00;100853.97;5071364;28;19924;-69
2021/07/07 04:36:52;;;;;;;;;;;;;;;17.64;100.00;100844.56;5071293;28;19932;-69
2021/07/07 04:39:18;;;;;;;;;;;;;;;17.60;100.00;100854.13;5071269;28;20277;-69
2021/07/07 04:41:44;;;;;;;;;;;;;;;17.60;100.00;100848.63;5070248;28;19924;-69
2021/07/07 04:44:11;;;;;;;;;;;;;;;17.57;100.00;100841.59;5072580;28;19978;-68
2021/07/07 04:46:37;;;;;;;;;;;;;;;17.60;100.00;100835.78;5072239;28;19928;-68
2021/07/07 04:49:04;;;;;;;;;;;;;;;17.64;100.00;100831.69;5075383;28;19962;-70
2021/07/07 04:51:31;;;;;;;;;;;;;;;17.64;100.00;100834.44;5072494;28;20284;-69
2021/07/07 04:53:57;;;;;;;;;;;;;;;17.67;100.00;100845.06;5071891;28;19925;-69
2021/07/07 04:56:23;;;;;;;;;;;;;;;17.73;100.00;100849.88;5067895;28;19960;-70
2021/07/07 04:58:50;;;;;;;;;;;;;;;17.72;100.00;100841.81;5063495;28;19932;-69
2021/07/07 05:01:16;;;;;;;;;;;;;;;17.76;100.00;100853.31;5072152;28;19931;-69
2021/07/07 05:03:43;;;;;;;;;;;;;;;17.69;100.00;100848.50;5071966;28;19981;-69
2021/07/07 05:06:10;;;;;;;;;;;;;;;17.72;100.00;100852.81;5071429;28;20350;-69
2021/07/07 05:08:36;;;;;;;;;;;;;;;17.67;100.00;100860.69;5071680;28;19931;-70
2021/07/07 05:11:03;;;;;;;;;;;;;;;17.60;100.00;100870.59;5071245;28;19939;-69
2021/07/07 05:13:30;;;;;;;;;;;;;;;17.57;100.00;100880.00;5071728;28;20373;-69
2021/07/07 05:15:57;;;;;;;;;;;;;;;17.52;100.00;100899.75;5071937;28;19974;-69
2021/07/07 05:18:23;;;;;;;;;;;;;;;17.47;100.00;100902.13;5071605;28;19997;-70
2021/07/07 05:20:49;;;;;;;;;;;;;;;17.43;100.00;100919.94;5071739;28;19997;-68
2021/07/07 05:23:17;;;;;;;;;;;;;;;17.45;100.00;100926.13;5071991;28;19925;-69
2021/07/07 05:25:45;;;;;;;;;;;;;;;17.42;100.00;100936.56;5071313;28;19978;-69
2021/07/07 05:28:12;;;;;;;;;;;;;;;17.38;100.00;100942.41;5071661;28;19951;-69
2021/07/07 05:30:40;;;;;;;;;;;;;;;17.34;100.00;100938.28;5070964;28;19986;-68
2021/07/07 05:33:08;;;;;;;;;;;;;;;17.37;100.00;100959.88;5069536;28;19924;-69
2021/07/07 05:35:34;;;;;;;;;;;;;;;17.39;100.00;100965.19;5072922;28;19980;-69
2021/07/07 05:38:00;;;;;;;;;;;;;;;17.38;100.00;100968.97;5067993;28;19924;-69
2021/07/07 05:40:28;;;;;;;;;;;;;;;17.36;100.00;100976.50;5059967;28;19924;-69
2021/07/07 05:42:55;;;;;;;;;;;;;;;17.37;100.00;100980.94;5068552;28;19956;-68
2021/07/07 05:45:23;;;;;;;;;;;;;;;17.36;100.00;100991.06;5070796;28;20031;-68
2021/07/07 05:47:49;;;;;;;;;;;;;;;17.36;100.00;101002.06;5067147;28;19939;-68
2021/07/07 05:50:16;;;;;;;;;;;;;;;17.44;100.00;101006.72;5068061;28;19928;-68
2021/07/07 05:52:43;;;;;;;;;;;;;;;17.53;100.00;101005.75;5071070;28;19971;-65
2021/07/07 05:55:10;;;;;;;;;;;;;;;17.69;100.00;101009.59;5071146;28;19947;-66
2021/07/07 05:57:38;;;;;;;;;;;;;;;17.87;100.00;100998.53;5071296;28;19925;-65
2021/07/07 06:00:07;;;;;;;;;;;;;;;17.84;100.00;100991.47;5071579;28;19924;-65
2021/07/07 06:02:34;;;;;;;;;;;;;;;17.84;100.00;100987.88;5070655;28;20370;-65
2021/07/07 06:05:00;;;;;;;;;;;;;;;17.69;100.00;100984.88;5070684;28;19932;-65
2021/07/07 06:07:27;;;;;;;;;;;;;;;17.54;100.00;100982.78;5070957;28;20337;-65
2021/07/07 06:09:54;;;;;;;;;;;;;;;17.48;100.00;100977.94;5070893;28;19924;-65
2021/07/07 06:12:20;;;;;;;;;;;;;;;17.45;100.00;100978.28;5071137;28;20007;-65
2021/07/07 06:14:48;;;;;;;;;;;;;;;17.48;100.00;100975.19;5070958;28;19932;-65
2021/07/07 06:17:14;;;;;;;;;;;;;;;17.50;100.00;100975.88;5070295;28;20033;-65
2021/07/07 06:19:41;;;;;;;;;;;;;;;17.48;100.00;100977.09;5070051;28;19963;-64
2021/07/07 06:22:07;;;;;;;;;;;;;;;17.51;100.00;100963.03;5071074;28;20271;-65
2021/07/07 06:24:33;;;;;;;;;;;;;;;17.47;100.00;100981.69;5070302;28;19925;-65
2021/07/07 06:26:59;;;;;;;;;;;;;;;17.46;100.00;100979.97;5070650;28;19998;-65
2021/07/07 06:29:26;;;;;;;;;;;;;;;17.47;100.00;100986.34;5071182;28;20288;-65
2021/07/07 06:31:53;;;;;;;;;;;;;;;17.43;100.00;100983.06;5070332;28;19977;-65
2021/07/07 06:34:20;;;;;;;;;;;;;;;17.46;100.00;101001.94;5070153;28;20316;-65
2021/07/07 06:36:46;;;;;;;;;;;;;;;17.46;100.00;101012.91;5070696;28;19959;-65
2021/07/07 06:39:12;;;;;;;;;;;;;;;17.46;100.00;101010.16;5070793;28;20447;-65
2021/07/07 06:41:41;;;;;;;;;;;;;;;17.43;100.00;101006.91;5069982;28;19929;-65
2021/07/07 06:44:07;;;;;;;;;;;;;;;17.34;100.00;101009.59;5069369;28;20269;-65
2021/07/07 06:46:35;;;;;;;;;;;;;;;17.28;100.00;101010.25;5070949;28;19928;-65
2021/07/07 06:49:03;;;;;;;;;;;;;;;17.26;100.00;101012.25;5073430;28;20367;-65
2021/07/07 06:51:30;;;;;;;;;;;;;;;17.33;100.00;101023.44;5074473;28;19924;-65
2021/07/07 06:53:56;;;;;;;;;;;;;;;17.36;100.00;101034.97;5073949;28;19990;-65
2021/07/07 06:56:22;;;;;;;;;;;;;;;17.43;100.00;101026.97;5073743;28;19976;-66
2021/07/07 06:58:48;;;;;;;;;;;;;;;17.52;100.00;101025.97;5072724;28;20566;-65
2021/07/07 07:01:15;;;;;;;;;;;;;;;17.47;100.00;101020.13;5074125;28;19928;-65
2021/07/07 07:03:41;;;;;;;;;;;;;;;17.42;100.00;101022.47;5073932;28;19964;-65
2021/07/07 07:06:09;;;;;;;;;;;;;;;17.34;100.00;101033.41;5074442;28;20276;-65
2021/07/07 07:08:35;;;;;;;;;;;;;;;17.31;100.00;101041.97;5073808;28;19972;-65
2021/07/07 07:11:01;;;;;;;;;;;;;;;17.17;100.00;101041.53;5074132;28;19924;-65
2021/07/07 07:13:28;;;;;;;;;;;;;;;17.13;100.00;101040.16;5073821;28;19947;-65
2021/07/07 07:15:54;;;;;;;;;;;;;;;17.16;100.00;101050.78;5073369;28;20392;-65
2021/07/07 07:18:20;;;;;;;;;;;;;;;17.21;100.00;101058.50;5073655;28;19967;-65
2021/07/07 07:20:46;;;;;;;;;;;;;;;17.26;100.00;101061.66;5073667;28;19925;-65
2021/07/07 07:23:15;;;;;;;;;;;;;;;17.34;100.00;101058.09;5071627;28;19925;-65
2021/07/07 07:25:41;;;;;;;;;;;;;;;17.42;100.00;101049.91;5072824;28;19929;-65
2021/07/07 07:28:07;;;;;;;;;;;;;;;17.51;100.00;101054.44;5073678;28;19928;-65
2021/07/07 07:30:34;;;;;;;;;;;;;;;17.53;100.00;101043.28;5073203;28;19925;-64
2021/07/07 07:33:00;;;;;;;;;;;;;;;17.58;100.00;101043.66;5073549;28;20029;-68
2021/07/07 07:35:26;;;;;;;;;;;;;;;17.54;100.00;101040.41;5073273;28;19978;-65
2021/07/07 07:38:00;;;;;;;;;;;;;;;17.50;100.00;101044.47;5073277;28;20319;-65
2021/07/07 07:40:34;;;;;;;;;;;;;;;17.44;100.00;101050.63;5072990;28;20256;-66
2021/07/07 07:43:00;;;;;;;;;;;;;;;17.37;100.00;101052.28;5073020;28;20026;-67
2021/07/07 07:45:27;;;;;;;;;;;;;;;17.32;100.00;101065.66;5073305;28;19948;-66
2021/07/07 07:47:53;;;;;;;;;;;;;;;17.26;100.00;101082.75;5072005;28;19928;-67
2021/07/07 07:50:20;;;;;;;;;;;;;;;17.20;100.00;101090.59;5073383;28;19971;-67
2021/07/07 07:52:46;;;;;;;;;;;;;;;17.17;100.00;101101.88;5071643;28;19928;-69
2021/07/07 07:55:13;;;;;;;;;;;;;;;17.18;100.00;101103.63;5073379;28;19925;-68
2021/07/07 07:57:41;;;;;;;;;;;;;;;17.31;100.00;101113.31;5072884;28;20413;-68
2021/07/07 08:00:09;;;;;;;;;;;;;;;17.41;100.00;101114.06;5072390;28;20453;-67
2021/07/07 08:02:40;;;;;;;;;;;;;;;17.49;100.00;101114.13;5072677;28;20368;-72
2021/07/07 08:05:07;;;;;;;;;;;;;;;17.63;100.00;101120.06;5071045;28;19925;-67
2021/07/07 08:07:33;;;;;;;;;;;;;;;17.71;100.00;101112.72;5072321;28;19959;-67
2021/07/07 08:10:01;;;;;;;;;;;;;;;17.74;100.00;101117.03;5072278;28;19925;-67
2021/07/07 08:12:27;;;;;;;;;;;;;;;17.78;100.00;101109.34;5072724;28;19928;-67
2021/07/07 08:14:55;;;;;;;;;;;;;;;17.81;100.00;101100.75;5072219;28;19935;-67
2021/07/07 08:17:21;;;;;;;;;;;;;;;17.74;100.00;101086.81;5072815;28;19967;-67
2021/07/07 08:19:48;;;;;;;;;;;;;;;17.72;100.00;101084.25;5072276;28;19970;-67
2021/07/07 08:22:16;;;;;;;;;;;;;;;17.66;100.00;101078.53;5072362;28;19978;-67
2021/07/07 08:24:42;;;;;;;;;;;;;;;17.62;100.00;101082.66;5071716;28;19924;-67
2021/07/07 08:27:09;;;;;;;;;;;;;;;17.56;100.00;101065.78;5071835;28;19971;-66
2021/07/07 08:29:35;;;;;;;;;;;;;;;17.49;100.00;101070.22;5072505;28;20295;-66
2021/07/07 08:32:03;;;;;;;;;;;;;;;17.40;100.00;101062.97;5071021;28;20283;-66
2021/07/07 08:34:29;;;;;;;;;;;;;;;17.46;100.00;101078.75;5072222;28;19966;-66
2021/07/07 08:36:56;;;;;;;;;;;;;;;17.49;100.00;101089.44;5071852;28;19968;-67
2021/07/07 08:39:23;;;;;;;;;;;;;;;17.49;100.00;101083.06;5071232;28;20395;-66
2021/07/07 08:41:49;;;;;;;;;;;;;;;17.52;100.00;101088.25;5072140;28;19925;-67
2021/07/07 08:44:16;;;;;;;;;;;;;;;17.63;100.00;101100.84;5071053;28;20327;-66
2021/07/07 08:46:42;;;;;;;;;;;;;;;17.75;100.00;101113.25;5070147;28;19979;-67
2021/07/07 08:49:10;;;;;;;;;;;;;;;17.80;100.00;101118.25;5071307;28;19978;-67
2021/07/07 08:51:41;;;;;;;;;;;;;;;17.80;100.00;101121.88;5071393;28;20000;-65
2021/07/07 08:54:07;;;;;;;;;;;;;;;17.76;100.00;101116.84;5071645;28;19925;-65
2021/07/07 08:56:37;;;;;;;;;;;;;;;17.74;100.00;101131.63;5071642;28;19925;-66
2021/07/07 08:59:04;;;;;;;;;;;;;;;17.77;100.00;101135.94;5069744;28;19931;-64
2021/07/07 09:01:30;;;;;;;;;;;;;;;17.77;100.00;101130.44;5071498;28;20027;-64
2021/07/07 09:03:56;;;;;;;;;;;;;;;17.77;100.00;101135.06;5071329;28;19983;-64
2021/07/07 09:06:24;;;;;;;;;;;;;;;17.76;100.00;101139.69;5071755;28;20204;-64
2021/07/07 09:08:50;;;;;;;;;;;;;;;17.74;100.00;101137.13;5071394;28;19924;-65
2021/07/07 09:11:18;;;;;;;;;;;;;;;17.75;100.00;101132.47;5070631;28;19970;-64
2021/07/07 09:13:45;;;;;;;;;;;;;;;17.72;100.00;101127.31;5069815;28;19928;-64
2021/07/07 09:16:12;;;;;;;;;;;;;;;17.69;100.00;101133.13;5071504;28;19967;-64
2021/07/07 09:18:38;;;;;;;;;;;;;;;17.70;100.00;101145.81;5071539;28;19931;-64
2021/07/07 09:21:22;;;;;;;;;;;;;;;17.73;100.00;101153.72;5070165;28;20036;-65
2021/07/07 09:23:50;;;;;;;;;;;;;;;17.73;100.00;101151.88;5071368;28;19994;-64
2021/07/07 09:26:25;;;;;;;;;;;;;;;17.76;100.00;101161.66;5071462;28;19924;-64
2021/07/07 09:28:52;;;;;;;;;;;;;;;17.74;100.00;101155.47;5070764;28;19993;-63
2021/07/07 09:31:28;;;;;;;;;;;;;;;17.72;100.00;101166.59;5071488;28;19967;-63
2021/07/07 09:34:09;;;;;;;;;;;;;;;17.64;100.00;101168.44;5070193;28;19933;-63
2021/07/07 09:36:38;;;;;;;;;;;;;;;17.58;100.00;101169.94;5070977;28;19994;-63
2021/07/07 09:39:06;;;;;;;;;;;;;;;17.55;100.00;101190.31;5069837;28;20276;-63
2021/07/07 09:41:33;;;;;;;;;;;;;;;17.48;100.00;101208.44;5071193;28;19940;-63
2021/07/07 09:43:59;;;;;;;;;;;;;;;17.44;100.00;101217.13;5069450;28;19980;-63
2021/07/07 09:46:25;;;;;;;;;;;;;;;17.44;100.00;101223.50;5071410;28;19970;-63
2021/07/07 09:48:53;;;;;;;;;;;;;;;17.45;100.00;101222.50;5070659;28;19933;-65
2021/07/07 09:51:20;;;;;;;;;;;;;;;17.54;100.00;101221.56;5070119;28;19968;-63
2021/07/07 09:53:46;;;;;;;;;;;;;;;17.66;100.00;101229.53;5070409;28;19925;-63
2021/07/07 09:56:14;;;;;;;;;;;;;;;17.67;100.00;101234.84;5070083;28;20324;-65
2021/07/07 09:58:40;;;;;;;;;;;;;;;17.65;100.00;101244.25;5070533;28;19924;-64
2021/07/07 10:01:06;;;;;;;;;;;;;;;17.66;100.00;101255.06;5070777;28;20018;-66
2021/07/07 10:03:33;;;;;;;;;;;;;;;17.61;100.00;101249.22;5071067;28;19970;-65
2021/07/07 10:06:01;;;;;;;;;;;;;;;17.56;100.00;101249.69;5070465;28;20228;-65
2021/07/07 10:08:27;;;;;;;;;;;;;;;17.63;100.00;101249.06;5070651;28;19983;-62
2021/07/07 10:10:54;;;;;;;;;;;;;;;17.74;100.00;101251.53;5069742;28;19978;-63
2021/07/07 10:13:22;;;;;;;;;;;;;;;17.83;100.00;101255.22;5070542;28;19925;-63
2021/07/07 10:15:50;;;;;;;;;;;;;;;17.83;100.00;101257.97;5070659;28;19924;-63
2021/07/07 10:18:16;;;;;;;;;;;;;;;17.87;100.00;101257.47;5071054;28;20019;-63
2021/07/07 10:20:43;;;;;;;;;;;;;;;17.81;100.00;101252.66;5070463;28;19970;-64
2021/07/07 10:23:10;;;;;;;;;;;;;;;17.95;100.00;101245.75;5070109;28;19928;-64
2021/07/07 10:25:37;;;;;;;;;;;;;;;18.06;100.00;101228.13;5074206;28;19964;-63
2021/07/07 10:28:06;;;;;;;;;;;;;;;18.17;100.00;101225.13;5073636;28;19929;-63
2021/07/07 10:33:28;;;;;;;;;;;;;;;18.47;100.00;101233.00;5108676;27;20012;-62
2021/07/07 10:36:13;;;;;;;;;;;;;;;18.60;100.00;101224.28;5109217;28;19969;-63
2021/07/07 10:38:40;;;;;;;;;;;;;;;18.77;100.00;101242.56;5107304;28;19924;-62
2021/07/07 10:41:06;;;;;;;;;;;;;;;18.85;100.00;101234.38;5109562;28;20391;-63
2021/07/07 10:43:43;;;;;;;;;;;;;;;18.94;100.00;101235.28;5093619;28;19924;-63
2021/07/07 10:46:09;;;;;;;;;;;;;;;19.05;100.00;101234.09;5099578;28;19925;-63
2021/07/07 10:48:37;;;;;;;;;;;;;;;19.10;100.00;101223.44;5088363;28;19929;-63
2021/07/07 10:51:23;;;;;;;;;;;;;;;19.01;100.00;101202.44;5097116;28;20372;-63
2021/07/07 10:53:49;;;;;;;;;;;;;;;18.99;100.00;101204.53;5096170;28;19970;-62
2021/07/07 10:56:15;;;;;;;;;;;;;;;18.98;100.00;101202.81;5088530;28;19963;-62
2021/07/07 10:58:42;;;;;;;;;;;;;;;18.93;100.00;101219.78;5088951;28;19960;-63
2021/07/07 11:01:33;;;;;;;;;;;;;;;18.87;100.00;101224.03;5109159;28;19924;-65
2021/07/07 11:04:01;;;;;;;;;;;;;;;18.85;100.00;101237.13;5089510;28;19963;-65
2021/07/07 11:06:36;;;;;;;;;;;;;;;18.83;100.00;101228.16;5089254;28;20376;-65
2021/07/07 11:09:13;;;;;;;;;;;;;;;18.74;100.00;101204.41;5098143;28;20414;-65
2021/07/07 11:11:39;;;;;;;;;;;;;;;18.80;100.00;101209.25;5089166;28;19925;-66
2021/07/07 11:14:16;;;;;;;;;;;;;;;18.96;100.00;101218.59;5092681;28;20390;-65
2021/07/07 11:16:46;;;;;;;;;;;;;;;19.15;100.00;101226.56;5095988;28;19968;-64
2021/07/07 11:19:31;;;;;;;;;;;;;;;19.23;100.00;101226.56;5100497;28;20411;-64
2021/07/07 11:22:02;;;;;;;;;;;;;;;19.18;100.00;101212.44;5095124;28;19978;-66
2021/07/07 11:24:28;;;;;;;;;;;;;;;19.20;100.00;101212.28;5108407;28;19928;-66
2021/07/07 11:26:55;;;;;;;;;;;;;;;19.21;100.00;101201.13;5094226;28;20285;-66
2021/07/07 11:29:21;;;;;;;;;;;;;;;19.17;100.00;101182.38;5107581;28;19924;-66
2021/07/07 11:31:48;;;;;;;;;;;;;;;19.21;100.00;101201.13;5087494;28;20375;-66
2021/07/07 11:34:14;;;;;;;;;;;;;;;19.30;100.00;101214.91;5097032;28;19981;-66
2021/07/07 11:36:41;;;;;;;;;;;;;;;19.31;100.00;101206.47;5108292;28;19960;-66
2021/07/07 11:39:08;;;;;;;;;;;;;;;19.32;100.00;101223.81;5108080;28;20562;-66
2021/07/07 11:41:35;;;;;;;;;;;;;;;19.39;100.00;101217.47;5106317;28;19924;-66
2021/07/07 11:44:01;;;;;;;;;;;;;;;19.54;100.00;101228.66;5098571;28;19924;-66
2021/07/07 11:46:31;;;;;;;;;;;;;;;19.68;100.00;101229.00;5093284;28;20438;-66
2021/07/07 11:49:06;;;;;;;;;;;;;;;19.83;100.00;101213.53;5093986;28;19947;-66
2021/07/07 11:51:35;;;;;;;;;;;;;;;19.92;100.00;101219.03;5094306;28;19924;-66
2021/07/07 11:54:02;;;;;;;;;;;;;;;20.10;100.00;101214.19;5094147;28;19924;-66
2021/07/07 11:56:30;;;;;;;;;;;;;;;20.09;100.00;101206.94;5094310;28;19928;-67
2021/07/07 11:58:57;;;;;;;;;;;;;;;20.15;100.00;101220.03;5093964;28;19928;-66
2021/07/07 12:01:25;;;;;;;;;;;;;;;20.13;100.00;101204.72;5093241;28;19924;-66
2021/07/07 12:03:55;;;;;;;;;;;;;;;20.18;100.00;101197.63;5073195;28;19928;-66
2021/07/07 12:06:28;;;;;;;;;;;;;;;20.19;100.00;101204.88;5073521;28;19925;-66
2021/07/07 12:08:55;;;;;;;;;;;;;;;20.23;100.00;101210.91;5073775;28;20035;-66
2021/07/07 12:11:22;;;;;;;;;;;;;;;20.35;100.00;101214.97;5073761;28;19964;-66
2021/07/07 12:13:51;;;;;;;;;;;;;;;20.57;100.00;101206.97;5073351;28;19929;-66
2021/07/07 12:16:30;;;;;;;;;;;;;;;20.75;100.00;101203.97;5073867;28;20376;-66
2021/07/07 12:18:57;;;;;;;;;;;;;;;20.85;100.00;101193.56;5073430;28;19929;-66
2021/07/07 12:21:31;;;;;;;;;;;;;;;20.92;100.00;101195.63;5073573;28;19925;-66
2021/07/07 12:23:58;;;;;;;;;;;;;;;21.31;100.00;101195.53;5073369;28;19924;-66
2021/07/07 12:26:24;;;;;;;;;;;;;;;21.62;100.00;101179.94;5073156;28;19925;-66
2021/07/07 12:28:54;;;;;;;;;;;;;;;21.92;100.00;101169.78;5073265;28;20388;-66
2021/07/07 12:31:21;;;;;;;;;;;;;;;22.21;100.00;101170.88;5073082;28;19932;-66